Ana Sayfa
METAR-TAF:

METAR-TAF

Havaalanları :

Iğdır Şehit Bülent Aydın Havalimanı

Iğdır, Türkiye

Enlem: 39-58-36N, Boylam: 43-52-36E, yükseklik: 945 m

Güncel hava durumu gözlemi

Rapor saat 13:50 UTC de 12 saat ve 52 dakika önce yapıldı.
Sakin rüzgar
Sıcaklık 2°C
Nem 51%
Basınç 1021 hPa
Görüş mesafesi 10 km veya daha fazla
7000 ft yükseklikte parçalı çok bulutlu

METAR: LTCT 231350Z 00000KT 9999 BKN070 02/M07 Q1021

Saat: 05:42 (02:42 UTC)

Tahmin

Rapor saat 01:40 UTC de 1 saat ve 2 dakika önce yapıldı.
Ayın 24'si saat 03 UTC'den ayın 24'si saat 12 UTC'ye kadar geçerli Tahmin
Rüzgar değişken yönden 2 kt
Görüş mesafesi 10 km veya daha fazla
1500 m altında bulut yok ve kümülonimbus yok

TAF: LTCT 240140Z 2403/2412 VRB02KT CAVOK

4.000'den fazla havaalanı için hava durumu gözlemleri ve tahminleri (METAR ve TAF raporları).

Kullanılabilir istasyonlar harita üzerinde sarı ve kırmızı noktalarla gösterilir.

İstasyonun adını görmek için fareyi noktanın üzerinde gezdirin.

Sonrasında hava gözlem ve tahminlerini görmek için tıklayın.

Haritayı değiştirmek için: yaklaştırmak için siyah artı işaretli yeşil düğmeye ve uzaklaştırmak için de eksi işaretli düğmeye hızla tıklayın; bitişik haritalar için yeşil okları kullanın.


METAR-TAF: